Weber Basin Water
2837 E Hwy 193, Layton
Last Weather Update:09/29/2011 11:00:00 PM
Date
ETo
ETc
Rain
Irrigation
Req
Temp
Max
Temp
Min
Temp
Avg
Avg RH
Avg Wind
Avg Solar
inches
inches
incehs
inches
F
F
F
%
%
watts/m2
08/01/2011 0.15" 0.13" 0.45" -0.32" 80.9° 63.4° 69.9° 66.9% 2.2 MPH 206.7w/m2
08/02/2011 0.21" 0.18" 0.09" 0.09" 87.7° 60.7° 73.0° 48.9% 2.4 MPH 282.0w/m2
08/03/2011 0.20" 0.18" 0.05" 0.13" 83.6° 60.3° 72.9° 48.0% 2.4 MPH 280.5w/m2
08/04/2011 0.22" 0.19" 0.07" 0.12" 88.5° 61.1° 74.8° 41.7% 1.8 MPH 306.3w/m2
08/05/2011 0.24" 0.21" 0.00" 0.21" 88.3° 61.0° 75.4° 29.5% 2.5 MPH 327.6w/m2
08/06/2011 0.24" 0.21" 0.00" 0.21" 90.6° 59.7° 76.1° 22.5% 2.4 MPH 328.9w/m2
08/07/2011 0.25" 0.21" 0.00" 0.21" 88.8° 58.7° 75.4° 21.7% 3.5 MPH 326.6w/m2
08/08/2011 0.24" 0.20" 0.00" 0.20" 90.1° 61.5° 77.2° 21.9% 2.7 MPH 325.0w/m2
08/09/2011 0.24" 0.20" 0.00" 0.20" 86.8° 59.2° 75.0° 22.6% 2.9 MPH 324.7w/m2
08/10/2011 0.23" 0.19" 0.00" 0.19" 88.8° 59.0° 74.8° 23.5% 2.4 MPH 317.1w/m2
08/11/2011 0.23" 0.19" 0.00" 0.19" 86.7° 59.6° 74.7° 26.4% 2.8 MPH 308.7w/m2
08/12/2011 0.22" 0.18" 0.00" 0.18" 86.8° 58.2° 74.3° 26.2% 2.3 MPH 317.1w/m2
08/13/2011 0.25" 0.20" 0.00" 0.20" 94.4° 62.8° 80.5° 21.8% 3.5 MPH 308.8w/m2
08/14/2011 0.24" 0.20" 0.56" -0.36" 89.7° 60.8° 78.1° 31.9% 3.5 MPH 312.0w/m2
08/15/2011 0.22" 0.17" 0.08" 0.09" 83.8° 59.6° 73.1° 44.9% 3.9 MPH 287.7w/m2
08/16/2011 0.21" 0.17" 0.00" 0.17" 84.7° 60.3° 73.5° 33.1% 2.5 MPH 303.9w/m2
08/17/2011 0.22" 0.17" 0.00" 0.17" 91.1° 62.4° 76.9° 25.8% 2.2 MPH 306.0w/m2
08/18/2011 0.22" 0.17" 0.00" 0.17" 92.8° 59.6° 76.2° 22.0% 2.2 MPH 310.2w/m2
08/19/2011 0.18" 0.14" 0.09" 0.05" 89.0° 63.1° 75.9° 35.6% 2.0 MPH 250.0w/m2
08/20/2011 0.21" 0.17" 0.00" 0.17" 92.7° 64.5° 78.1° 34.7% 1.9 MPH 295.0w/m2
08/21/2011 0.19" 0.15" 0.00" 0.15" 92.5° 64.3° 78.1° 30.6% 2.1 MPH 260.3w/m2
08/22/2011 0.21" 0.16" 0.00" 0.16" 93.1° 64.5° 79.1° 26.3% 2.3 MPH 278.8w/m2
08/23/2011 0.22" 0.16" 0.00" 0.16" 93.2° 65.1° 79.3° 25.1% 2.3 MPH 291.7w/m2
08/24/2011 0.21" 0.16" 0.00" 0.16" 96.3° 65.4° 81.8° 25.9% 1.8 MPH 302.8w/m2
08/25/2011 0.22" 0.16" 0.00" 0.16" 96.0° 73.3° 83.8° 25.1% 3.0 MPH 264.4w/m2
08/26/2011 0.22" 0.16" 0.00" 0.16" 95.3° 68.7° 82.3° 27.2% 2.4 MPH 288.4w/m2
08/27/2011 0.20" 0.15" 0.00" 0.15" 93.4° 68.3° 80.8° 31.9% 2.0 MPH 271.9w/m2
08/28/2011 0.20" 0.14" 0.19" -0.05" 88.7° 65.6° 76.9° 47.7% 2.9 MPH 265.6w/m2
08/29/2011 0.19" 0.14" 0.22" -0.08" 87.8° 59.6° 73.6° 52.2% 2.0 MPH 281.8w/m2
08/30/2011 0.20" 0.14" 0.00" 0.14" 90.0° 62.9° 76.9° 34.4% 2.3 MPH 273.1w/m2
08/31/2011 0.25" 0.18" 0.00" 0.18" 92.4° 66.9° 80.5° 22.6% 4.8 MPH 274.1w/m2
Totals: 6.74" 5.38" 1.80" 3.58" 96.3° 58.2° 76.7° 32.2% 2.6 MPH 292.8w/m2